sensor_id;sensor_type;location;lat;lon;timestamp;P1;durP1;ratioP1;P2;durP2;ratioP2
25990;SDS011;13779;-33.886;151.198;2023-04-10T00:01:37;4.35;;;0.63;;
25990;SDS011;13779;-33.886;151.198;2023-04-10T00:04:09;5.30;;;0.77;;
25990;SDS011;13779;-33.886;151.198;2023-04-10T00:06:40;2.67;;;0.75;;
25990;SDS011;13779;-33.886;151.198;2023-04-10T00:09:11;3.10;;;0.80;;
25990;SDS011;13779;-33.886;151.198;2023-04-10T00:11:41;1.65;;;0.60;;
25990;SDS011;13779;-33.886;151.198;2023-04-10T00:14:12;3.83;;;1.25;;
25990;SDS011;13779;-33.886;151.198;2023-04-10T00:16:43;4.38;;;1.15;;
25990;SDS011;13779;-33.886;151.198;2023-04-10T00:19:14;3.00;;;0.75;;
25990;SDS011;13779;-33.886;151.198;2023-04-10T00:21:46;2.45;;;0.43;;
25990;SDS011;13779;-33.886;151.198;2023-04-10T00:24:16;2.30;;;0.70;;
25990;SDS011;13779;-33.886;151.198;2023-04-10T00:26:47;2.05;;;0.70;;
25990;SDS011;13779;-33.886;151.198;2023-04-10T00:29:18;1.80;;;1.05;;
25990;SDS011;13779;-33.886;151.198;2023-04-10T00:31:48;4.40;;;0.97;;
25990;SDS011;13779;-33.886;151.198;2023-04-10T00:34:19;4.95;;;0.63;;
25990;SDS011;13779;-33.886;151.198;2023-04-10T00:36:49;2.17;;;0.80;;
25990;SDS011;13779;-33.886;151.198;2023-04-10T00:39:20;1.67;;;0.70;;
25990;SDS011;13779;-33.886;151.198;2023-04-10T00:41:52;1.65;;;0.70;;
25990;SDS011;13779;-33.886;151.198;2023-04-10T00:44:23;2.97;;;1.65;;
25990;SDS011;13779;-33.886;151.198;2023-04-10T00:46:53;2.40;;;0.60;;
25990;SDS011;13779;-33.886;151.198;2023-04-10T00:49:24;1.88;;;1.13;;
25990;SDS011;13779;-33.886;151.198;2023-04-10T00:51:55;2.93;;;1.93;;
25990;SDS011;13779;-33.886;151.198;2023-04-10T00:54:26;2.15;;;0.90;;
25990;SDS011;13779;-33.886;151.198;2023-04-10T00:56:57;2.97;;;0.90;;
25990;SDS011;13779;-33.886;151.198;2023-04-10T00:59:27;5.53;;;1.38;;
25990;SDS011;13779;-33.886;151.198;2023-04-10T01:01:58;1.92;;;0.88;;
25990;SDS011;13779;-33.886;151.198;2023-04-10T01:04:29;1.85;;;0.50;;
25990;SDS011;13779;-33.886;151.198;2023-04-10T01:07:03;0.93;;;0.40;;
25990;SDS011;13779;-33.886;151.198;2023-04-10T01:15:21;3.13;;;0.98;;
25990;SDS011;13779;-33.886;151.198;2023-04-10T01:18:01;2.10;;;0.52;;
25990;SDS011;13779;-33.886;151.198;2023-04-10T01:20:41;1.75;;;0.57;;
25990;SDS011;13779;-33.886;151.198;2023-04-10T01:26:10;1.63;;;0.47;;
25990;SDS011;13779;-33.886;151.198;2023-04-10T01:31:26;2.40;;;0.40;;
25990;SDS011;13779;-33.886;151.198;2023-04-10T01:34:18;2.03;;;0.40;;
25990;SDS011;13779;-33.886;151.198;2023-04-10T01:37:21;2.83;;;0.55;;
25990;SDS011;13779;-33.886;151.198;2023-04-10T01:40:02;1.25;;;0.40;;
25990;SDS011;13779;-33.886;151.198;2023-04-10T01:42:46;1.40;;;0.70;;
25990;SDS011;13779;-33.886;151.198;2023-04-10T01:45:21;1.85;;;0.95;;
25990;SDS011;13779;-33.886;151.198;2023-04-10T01:47:55;2.58;;;0.70;;
25990;SDS011;13779;-33.886;151.198;2023-04-10T01:50:26;2.10;;;0.50;;
25990;SDS011;13779;-33.886;151.198;2023-04-10T01:52:58;4.18;;;1.45;;
25990;SDS011;13779;-33.886;151.198;2023-04-10T01:55:31;1.77;;;0.43;;
25990;SDS011;13779;-33.886;151.198;2023-04-10T01:58:02;1.52;;;1.40;;
25990;SDS011;13779;-33.886;151.198;2023-04-10T02:00:40;2.13;;;1.17;;
25990;SDS011;13779;-33.886;151.198;2023-04-10T02:03:15;2.28;;;0.50;;
25990;SDS011;13779;-33.886;151.198;2023-04-10T02:11:35;3.22;;;0.50;;
25990;SDS011;13779;-33.886;151.198;2023-04-10T02:14:15;2.22;;;0.80;;
25990;SDS011;13779;-33.886;151.198;2023-04-10T02:16:51;3.03;;;1.02;;
25990;SDS011;13779;-33.886;151.198;2023-04-10T02:19:24;2.15;;;0.75;;
25990;SDS011;13779;-33.886;151.198;2023-04-10T02:21:55;1.48;;;0.80;;
25990;SDS011;13779;-33.886;151.198;2023-04-10T02:24:27;1.58;;;0.50;;
25990;SDS011;13779;-33.886;151.198;2023-04-10T02:26:59;1.58;;;0.50;;
25990;SDS011;13779;-33.886;151.198;2023-04-10T02:29:29;2.15;;;0.50;;
25990;SDS011;13779;-33.886;151.198;2023-04-10T02:31:59;1.38;;;0.70;;
25990;SDS011;13779;-33.886;151.198;2023-04-10T02:34:30;2.58;;;0.77;;
25990;SDS011;13779;-33.886;151.198;2023-04-10T02:37:00;3.53;;;0.90;;
25990;SDS011;13779;-33.886;151.198;2023-04-10T02:39:30;2.25;;;1.02;;
25990;SDS011;13779;-33.886;151.198;2023-04-10T02:42:00;2.38;;;0.77;;
25990;SDS011;13779;-33.886;151.198;2023-04-10T02:44:30;1.80;;;0.77;;
25990;SDS011;13779;-33.886;151.198;2023-04-10T02:47:01;2.30;;;0.40;;
25990;SDS011;13779;-33.886;151.198;2023-04-10T02:49:32;4.13;;;1.20;;
25990;SDS011;13779;-33.886;151.198;2023-04-10T02:52:02;2.47;;;0.90;;
25990;SDS011;13779;-33.886;151.198;2023-04-10T02:54:32;1.23;;;0.90;;
25990;SDS011;13779;-33.886;151.198;2023-04-10T02:57:03;7.28;;;1.65;;
25990;SDS011;13779;-33.886;151.198;2023-04-10T02:59:33;3.90;;;1.10;;
25990;SDS011;13779;-33.886;151.198;2023-04-10T03:02:03;3.73;;;1.10;;
25990;SDS011;13779;-33.886;151.198;2023-04-10T03:04:33;4.22;;;1.00;;
25990;SDS011;13779;-33.886;151.198;2023-04-10T03:07:05;2.92;;;1.05;;
25990;SDS011;13779;-33.886;151.198;2023-04-10T03:09:36;4.18;;;1.20;;
25990;SDS011;13779;-33.886;151.198;2023-04-10T03:12:06;2.10;;;1.02;;
25990;SDS011;13779;-33.886;151.198;2023-04-10T03:14:36;2.00;;;0.45;;
25990;SDS011;13779;-33.886;151.198;2023-04-10T03:17:09;3.40;;;0.47;;
25990;SDS011;13779;-33.886;151.198;2023-04-10T03:19:39;1.38;;;0.73;;
25990;SDS011;13779;-33.886;151.198;2023-04-10T03:22:09;5.38;;;1.10;;
25990;SDS011;13779;-33.886;151.198;2023-04-10T03:24:40;5.68;;;0.98;;
25990;SDS011;13779;-33.886;151.198;2023-04-10T03:27:10;4.57;;;1.73;;
25990;SDS011;13779;-33.886;151.198;2023-04-10T03:29:40;2.65;;;1.45;;
25990;SDS011;13779;-33.886;151.198;2023-04-10T03:32:11;4.80;;;1.27;;
25990;SDS011;13779;-33.886;151.198;2023-04-10T03:34:41;2.33;;;1.02;;
25990;SDS011;13779;-33.886;151.198;2023-04-10T03:37:11;2.58;;;1.00;;
25990;SDS011;13779;-33.886;151.198;2023-04-10T03:39:41;2.13;;;0.77;;
25990;SDS011;13779;-33.886;151.198;2023-04-10T03:42:11;6.05;;;0.85;;
25990;SDS011;13779;-33.886;151.198;2023-04-10T03:44:41;2.92;;;0.90;;
25990;SDS011;13779;-33.886;151.198;2023-04-10T03:47:14;4.10;;;1.10;;
25990;SDS011;13779;-33.886;151.198;2023-04-10T03:49:44;4.78;;;1.00;;
25990;SDS011;13779;-33.886;151.198;2023-04-10T03:52:15;2.17;;;0.80;;
25990;SDS011;13779;-33.886;151.198;2023-04-10T03:54:45;1.33;;;0.80;;
25990;SDS011;13779;-33.886;151.198;2023-04-10T03:57:15;2.15;;;1.00;;
25990;SDS011;13779;-33.886;151.198;2023-04-10T03:59:46;3.92;;;1.08;;
25990;SDS011;13779;-33.886;151.198;2023-04-10T04:02:17;4.20;;;1.03;;
25990;SDS011;13779;-33.886;151.198;2023-04-10T04:04:47;2.88;;;0.75;;
25990;SDS011;13779;-33.886;151.198;2023-04-10T04:07:18;3.55;;;0.80;;
25990;SDS011;13779;-33.886;151.198;2023-04-10T04:09:48;2.92;;;1.10;;
25990;SDS011;13779;-33.886;151.198;2023-04-10T04:12:20;3.78;;;1.23;;
25990;SDS011;13779;-33.886;151.198;2023-04-10T04:14:50;4.22;;;1.17;;
25990;SDS011;13779;-33.886;151.198;2023-04-10T04:17:20;3.47;;;1.00;;
25990;SDS011;13779;-33.886;151.198;2023-04-10T04:19:50;2.60;;;1.05;;
25990;SDS011;13779;-33.886;151.198;2023-04-10T04:22:20;4.32;;;1.48;;
25990;SDS011;13779;-33.886;151.198;2023-04-10T04:24:51;4.45;;;1.48;;
25990;SDS011;13779;-33.886;151.198;2023-04-10T04:27:21;2.53;;;0.88;;
25990;SDS011;13779;-33.886;151.198;2023-04-10T04:29:51;4.45;;;1.00;;
25990;SDS011;13779;-33.886;151.198;2023-04-10T04:32:21;2.05;;;1.23;;
25990;SDS011;13779;-33.886;151.198;2023-04-10T04:34:51;2.00;;;0.88;;
25990;SDS011;13779;-33.886;151.198;2023-04-10T04:37:21;4.68;;;1.20;;
25990;SDS011;13779;-33.886;151.198;2023-04-10T04:39:51;3.85;;;1.05;;
25990;SDS011;13779;-33.886;151.198;2023-04-10T04:42:21;2.10;;;0.93;;
25990;SDS011;13779;-33.886;151.198;2023-04-10T04:44:51;2.67;;;1.10;;
25990;SDS011;13779;-33.886;151.198;2023-04-10T04:47:22;4.20;;;1.10;;
25990;SDS011;13779;-33.886;151.198;2023-04-10T04:49:52;3.17;;;1.15;;
25990;SDS011;13779;-33.886;151.198;2023-04-10T04:52:22;2.05;;;0.80;;
25990;SDS011;13779;-33.886;151.198;2023-04-10T04:54:52;2.45;;;0.75;;
25990;SDS011;13779;-33.886;151.198;2023-04-10T04:57:23;2.85;;;0.98;;
25990;SDS011;13779;-33.886;151.198;2023-04-10T04:59:55;3.72;;;1.30;;
25990;SDS011;13779;-33.886;151.198;2023-04-10T05:02:26;2.92;;;1.02;;
25990;SDS011;13779;-33.886;151.198;2023-04-10T05:04:56;5.72;;;1.73;;
25990;SDS011;13779;-33.886;151.198;2023-04-10T05:07:28;3.38;;;1.00;;
25990;SDS011;13779;-33.886;151.198;2023-04-10T05:09:58;4.13;;;1.17;;
25990;SDS011;13779;-33.886;151.198;2023-04-10T05:12:33;2.05;;;0.88;;
25990;SDS011;13779;-33.886;151.198;2023-04-10T05:15:03;4.55;;;1.27;;
25990;SDS011;13779;-33.886;151.198;2023-04-10T05:17:35;1.63;;;1.00;;
25990;SDS011;13779;-33.886;151.198;2023-04-10T05:20:05;2.97;;;1.13;;
25990;SDS011;13779;-33.886;151.198;2023-04-10T05:22:38;1.48;;;0.82;;
25990;SDS011;13779;-33.886;151.198;2023-04-10T05:25:08;2.25;;;1.42;;
25990;SDS011;13779;-33.886;151.198;2023-04-10T05:27:39;2.83;;;1.20;;
25990;SDS011;13779;-33.886;151.198;2023-04-10T05:30:10;4.80;;;1.40;;
25990;SDS011;13779;-33.886;151.198;2023-04-10T05:32:42;3.58;;;1.33;;
25990;SDS011;13779;-33.886;151.198;2023-04-10T05:35:19;1.83;;;1.00;;
25990;SDS011;13779;-33.886;151.198;2023-04-10T05:37:50;2.78;;;1.10;;
25990;SDS011;13779;-33.886;151.198;2023-04-10T05:40:21;4.07;;;1.27;;
25990;SDS011;13779;-33.886;151.198;2023-04-10T05:45:22;5.38;;;1.40;;
25990;SDS011;13779;-33.886;151.198;2023-04-10T05:48:10;5.65;;;1.50;;
25990;SDS011;13779;-33.886;151.198;2023-04-10T05:50:42;3.22;;;1.15;;
25990;SDS011;13779;-33.886;151.198;2023-04-10T05:53:19;2.72;;;1.10;;
25990;SDS011;13779;-33.886;151.198;2023-04-10T05:55:52;1.23;;;0.75;;
25990;SDS011;13779;-33.886;151.198;2023-04-10T05:58:25;3.78;;;0.90;;
25990;SDS011;13779;-33.886;151.198;2023-04-10T06:01:00;2.28;;;0.80;;
25990;SDS011;13779;-33.886;151.198;2023-04-10T06:03:40;3.78;;;1.10;;
25990;SDS011;13779;-33.886;151.198;2023-04-10T06:06:10;3.50;;;1.15;;
25990;SDS011;13779;-33.886;151.198;2023-04-10T06:08:42;5.97;;;1.45;;
25990;SDS011;13779;-33.886;151.198;2023-04-10T06:11:12;2.60;;;0.82;;
25990;SDS011;13779;-33.886;151.198;2023-04-10T06:13:43;5.83;;;2.47;;
25990;SDS011;13779;-33.886;151.198;2023-04-10T06:16:13;2.67;;;1.30;;
25990;SDS011;13779;-33.886;151.198;2023-04-10T06:18:43;3.70;;;1.52;;
25990;SDS011;13779;-33.886;151.198;2023-04-10T06:21:15;4.40;;;1.67;;
25990;SDS011;13779;-33.886;151.198;2023-04-10T06:23:45;2.63;;;1.30;;
25990;SDS011;13779;-33.886;151.198;2023-04-10T06:26:15;4.85;;;1.45;;
25990;SDS011;13779;-33.886;151.198;2023-04-10T06:28:45;3.33;;;1.50;;
25990;SDS011;13779;-33.886;151.198;2023-04-10T06:31:17;6.10;;;1.52;;
25990;SDS011;13779;-33.886;151.198;2023-04-10T06:33:51;2.38;;;1.30;;
25990;SDS011;13779;-33.886;151.198;2023-04-10T06:36:22;2.83;;;0.93;;
25990;SDS011;13779;-33.886;151.198;2023-04-10T06:38:52;6.57;;;1.30;;
25990;SDS011;13779;-33.886;151.198;2023-04-10T06:41:22;4.25;;;1.38;;
25990;SDS011;13779;-33.886;151.198;2023-04-10T06:43:52;5.82;;;1.50;;
25990;SDS011;13779;-33.886;151.198;2023-04-10T06:46:22;3.35;;;1.50;;
25990;SDS011;13779;-33.886;151.198;2023-04-10T06:48:56;4.82;;;1.45;;
25990;SDS011;13779;-33.886;151.198;2023-04-10T06:51:26;4.97;;;1.40;;
25990;SDS011;13779;-33.886;151.198;2023-04-10T06:53:56;2.10;;;1.30;;
25990;SDS011;13779;-33.886;151.198;2023-04-10T06:56:26;5.20;;;1.40;;
25990;SDS011;13779;-33.886;151.198;2023-04-10T06:58:57;3.10;;;1.13;;
25990;SDS011;13779;-33.886;151.198;2023-04-10T07:01:28;5.53;;;1.80;;
25990;SDS011;13779;-33.886;151.198;2023-04-10T07:03:58;6.03;;;1.83;;
25990;SDS011;13779;-33.886;151.198;2023-04-10T07:06:28;2.83;;;1.08;;
25990;SDS011;13779;-33.886;151.198;2023-04-10T07:08:58;4.50;;;1.08;;
25990;SDS011;13779;-33.886;151.198;2023-04-10T07:11:28;4.68;;;1.50;;
25990;SDS011;13779;-33.886;151.198;2023-04-10T07:13:59;4.43;;;1.20;;
25990;SDS011;13779;-33.886;151.198;2023-04-10T07:16:32;5.00;;;1.30;;
25990;SDS011;13779;-33.886;151.198;2023-04-10T07:19:44;5.78;;;1.42;;
25990;SDS011;13779;-33.886;151.198;2023-04-10T07:22:14;4.35;;;1.77;;
25990;SDS011;13779;-33.886;151.198;2023-04-10T07:24:45;3.92;;;1.40;;
25990;SDS011;13779;-33.886;151.198;2023-04-10T07:27:16;5.28;;;1.52;;
25990;SDS011;13779;-33.886;151.198;2023-04-10T07:29:49;4.97;;;1.37;;
25990;SDS011;13779;-33.886;151.198;2023-04-10T07:32:22;3.85;;;1.20;;
25990;SDS011;13779;-33.886;151.198;2023-04-10T07:34:53;3.13;;;1.42;;
25990;SDS011;13779;-33.886;151.198;2023-04-10T07:37:23;2.75;;;1.40;;
25990;SDS011;13779;-33.886;151.198;2023-04-10T07:39:54;3.97;;;1.23;;
25990;SDS011;13779;-33.886;151.198;2023-04-10T07:42:53;3.97;;;1.77;;
25990;SDS011;13779;-33.886;151.198;2023-04-10T07:48:46;10.30;;;1.95;;
25990;SDS011;13779;-33.886;151.198;2023-04-10T07:51:16;3.35;;;1.75;;
25990;SDS011;13779;-33.886;151.198;2023-04-10T07:53:46;9.18;;;1.67;;
25990;SDS011;13779;-33.886;151.198;2023-04-10T07:56:17;5.38;;;1.60;;
25990;SDS011;13779;-33.886;151.198;2023-04-10T07:58:50;5.00;;;2.03;;
25990;SDS011;13779;-33.886;151.198;2023-04-10T08:01:20;7.85;;;2.38;;
25990;SDS011;13779;-33.886;151.198;2023-04-10T08:03:50;5.20;;;1.67;;
25990;SDS011;13779;-33.886;151.198;2023-04-10T08:06:21;6.45;;;1.90;;
25990;SDS011;13779;-33.886;151.198;2023-04-10T08:08:51;7.35;;;2.10;;
25990;SDS011;13779;-33.886;151.198;2023-04-10T08:13:57;8.43;;;2.47;;
25990;SDS011;13779;-33.886;151.198;2023-04-10T08:16:33;8.60;;;2.28;;
25990;SDS011;13779;-33.886;151.198;2023-04-10T08:19:04;7.28;;;2.78;;
25990;SDS011;13779;-33.886;151.198;2023-04-10T08:21:34;4.28;;;1.75;;
25990;SDS011;13779;-33.886;151.198;2023-04-10T08:24:05;7.50;;;2.80;;
25990;SDS011;13779;-33.886;151.198;2023-04-10T08:26:36;7.30;;;3.30;;
25990;SDS011;13779;-33.886;151.198;2023-04-10T08:29:06;8.63;;;3.33;;
25990;SDS011;13779;-33.886;151.198;2023-04-10T08:31:37;7.25;;;3.28;;
25990;SDS011;13779;-33.886;151.198;2023-04-10T08:34:07;5.47;;;2.72;;
25990;SDS011;13779;-33.886;151.198;2023-04-10T08:36:38;9.43;;;3.15;;
25990;SDS011;13779;-33.886;151.198;2023-04-10T08:39:08;6.72;;;2.80;;
25990;SDS011;13779;-33.886;151.198;2023-04-10T08:41:39;6.57;;;2.92;;
25990;SDS011;13779;-33.886;151.198;2023-04-10T08:44:10;12.55;;;3.90;;
25990;SDS011;13779;-33.886;151.198;2023-04-10T08:46:41;11.02;;;3.45;;
25990;SDS011;13779;-33.886;151.198;2023-04-10T08:52:18;11.00;;;3.60;;
25990;SDS011;13779;-33.886;151.198;2023-04-10T08:54:54;6.40;;;3.67;;
25990;SDS011;13779;-33.886;151.198;2023-04-10T08:57:26;9.98;;;3.95;;
25990;SDS011;13779;-33.886;151.198;2023-04-10T08:59:58;7.85;;;4.88;;
25990;SDS011;13779;-33.886;151.198;2023-04-10T09:02:38;8.15;;;4.30;;
25990;SDS011;13779;-33.886;151.198;2023-04-10T09:05:12;13.80;;;4.85;;
25990;SDS011;13779;-33.886;151.198;2023-04-10T09:07:43;7.45;;;3.60;;
25990;SDS011;13779;-33.886;151.198;2023-04-10T09:10:13;5.60;;;4.22;;
25990;SDS011;13779;-33.886;151.198;2023-04-10T09:15:15;9.13;;;5.93;;
25990;SDS011;13779;-33.886;151.198;2023-04-10T09:17:56;10.57;;;6.57;;
25990;SDS011;13779;-33.886;151.198;2023-04-10T09:20:31;13.20;;;5.90;;
25990;SDS011;13779;-33.886;151.198;2023-04-10T09:23:01;11.10;;;5.90;;
25990;SDS011;13779;-33.886;151.198;2023-04-10T09:25:49;12.00;;;6.22;;
25990;SDS011;13779;-33.886;151.198;2023-04-10T09:28:20;13.95;;;5.88;;
25990;SDS011;13779;-33.886;151.198;2023-04-10T09:30:50;10.38;;;4.88;;
25990;SDS011;13779;-33.886;151.198;2023-04-10T09:33:22;9.87;;;5.87;;
25990;SDS011;13779;-33.886;151.198;2023-04-10T09:36:15;13.13;;;6.10;;
25990;SDS011;13779;-33.886;151.198;2023-04-10T09:38:49;10.05;;;6.40;;
25990;SDS011;13779;-33.886;151.198;2023-04-10T09:41:20;10.05;;;5.25;;
25990;SDS011;13779;-33.886;151.198;2023-04-10T09:44:04;11.83;;;5.03;;
25990;SDS011;13779;-33.886;151.198;2023-04-10T09:46:40;10.25;;;3.95;;
25990;SDS011;13779;-33.886;151.198;2023-04-10T09:49:10;8.63;;;4.70;;
25990;SDS011;13779;-33.886;151.198;2023-04-10T09:51:41;8.75;;;3.38;;
25990;SDS011;13779;-33.886;151.198;2023-04-10T09:54:13;7.47;;;3.25;;
25990;SDS011;13779;-33.886;151.198;2023-04-10T09:56:44;6.40;;;2.97;;
25990;SDS011;13779;-33.886;151.198;2023-04-10T09:59:18;7.07;;;2.92;;
25990;SDS011;13779;-33.886;151.198;2023-04-10T10:01:48;9.90;;;2.90;;
25990;SDS011;13779;-33.886;151.198;2023-04-10T10:04:19;5.63;;;2.47;;
25990;SDS011;13779;-33.886;151.198;2023-04-10T10:06:49;3.30;;;1.77;;
25990;SDS011;13779;-33.886;151.198;2023-04-10T10:09:20;4.95;;;1.65;;
25990;SDS011;13779;-33.886;151.198;2023-04-10T10:11:51;6.45;;;2.20;;
25990;SDS011;13779;-33.886;151.198;2023-04-10T10:14:23;3.95;;;1.75;;
25990;SDS011;13779;-33.886;151.198;2023-04-10T10:16:57;3.22;;;1.85;;
25990;SDS011;13779;-33.886;151.198;2023-04-10T10:19:39;3.63;;;2.00;;
25990;SDS011;13779;-33.886;151.198;2023-04-10T10:22:16;6.07;;;2.63;;
25990;SDS011;13779;-33.886;151.198;2023-04-10T10:27:17;6.03;;;2.22;;
25990;SDS011;13779;-33.886;151.198;2023-04-10T10:29:49;4.10;;;2.55;;
25990;SDS011;13779;-33.886;151.198;2023-04-10T10:32:21;4.22;;;2.53;;
25990;SDS011;13779;-33.886;151.198;2023-04-10T10:34:54;3.95;;;2.88;;
25990;SDS011;13779;-33.886;151.198;2023-04-10T10:37:25;5.18;;;3.05;;
25990;SDS011;13779;-33.886;151.198;2023-04-10T10:42:52;2.72;;;1.55;;
25990;SDS011;13779;-33.886;151.198;2023-04-10T10:45:52;4.03;;;1.55;;
25990;SDS011;13779;-33.886;151.198;2023-04-10T10:48:23;2.80;;;1.40;;
25990;SDS011;13779;-33.886;151.198;2023-04-10T10:50:54;3.38;;;1.70;;
25990;SDS011;13779;-33.886;151.198;2023-04-10T10:58:48;4.32;;;1.40;;
25990;SDS011;13779;-33.886;151.198;2023-04-10T11:01:22;2.72;;;1.38;;
25990;SDS011;13779;-33.886;151.198;2023-04-10T11:03:53;1.70;;;1.27;;
25990;SDS011;13779;-33.886;151.198;2023-04-10T11:12:25;3.83;;;1.20;;
25990;SDS011;13779;-33.886;151.198;2023-04-10T11:14:59;2.97;;;1.17;;
25990;SDS011;13779;-33.886;151.198;2023-04-10T11:17:51;2.35;;;1.48;;
25990;SDS011;13779;-33.886;151.198;2023-04-10T11:20:23;4.70;;;1.15;;
25990;SDS011;13779;-33.886;151.198;2023-04-10T11:25:50;1.75;;;1.20;;
25990;SDS011;13779;-33.886;151.198;2023-04-10T11:34:07;6.63;;;1.53;;
25990;SDS011;13779;-33.886;151.198;2023-04-10T11:36:41;1.90;;;1.00;;
25990;SDS011;13779;-33.886;151.198;2023-04-10T11:39:12;2.78;;;1.30;;
25990;SDS011;13779;-33.886;151.198;2023-04-10T11:41:49;2.05;;;1.13;;
25990;SDS011;13779;-33.886;151.198;2023-04-10T11:44:31;1.73;;;0.90;;
25990;SDS011;13779;-33.886;151.198;2023-04-10T11:47:11;4.28;;;1.10;;
25990;SDS011;13779;-33.886;151.198;2023-04-10T11:49:41;2.25;;;0.88;;
25990;SDS011;13779;-33.886;151.198;2023-04-10T11:52:25;1.70;;;0.93;;
25990;SDS011;13779;-33.886;151.198;2023-04-10T11:54:56;7.40;;;1.67;;
25990;SDS011;13779;-33.886;151.198;2023-04-10T11:57:33;3.05;;;1.58;;
25990;SDS011;13779;-33.886;151.198;2023-04-10T12:00:04;2.90;;;1.17;;
25990;SDS011;13779;-33.886;151.198;2023-04-10T12:02:58;3.90;;;1.17;;
25990;SDS011;13779;-33.886;151.198;2023-04-10T12:05:33;1.67;;;1.00;;
25990;SDS011;13779;-33.886;151.198;2023-04-10T12:08:14;3.47;;;1.15;;
25990;SDS011;13779;-33.886;151.198;2023-04-10T12:10:48;3.58;;;1.10;;
25990;SDS011;13779;-33.886;151.198;2023-04-10T12:13:25;2.17;;;1.20;;
25990;SDS011;13779;-33.886;151.198;2023-04-10T12:16:03;3.25;;;1.30;;
25990;SDS011;13779;-33.886;151.198;2023-04-10T12:18:37;2.42;;;0.95;;
25990;SDS011;13779;-33.886;151.198;2023-04-10T12:21:08;2.03;;;0.95;;
25990;SDS011;13779;-33.886;151.198;2023-04-10T12:23:38;4.33;;;1.00;;
25990;SDS011;13779;-33.886;151.198;2023-04-10T12:26:10;2.65;;;1.20;;
25990;SDS011;13779;-33.886;151.198;2023-04-10T12:28:41;3.08;;;1.25;;
25990;SDS011;13779;-33.886;151.198;2023-04-10T12:31:28;1.80;;;1.15;;
25990;SDS011;13779;-33.886;151.198;2023-04-10T12:34:00;2.55;;;1.10;;
25990;SDS011;13779;-33.886;151.198;2023-04-10T12:36:34;2.42;;;1.38;;
25990;SDS011;13779;-33.886;151.198;2023-04-10T12:39:07;2.73;;;1.10;;
25990;SDS011;13779;-33.886;151.198;2023-04-10T12:41:51;4.78;;;1.40;;
25990;SDS011;13779;-33.886;151.198;2023-04-10T12:44:21;2.40;;;1.00;;
25990;SDS011;13779;-33.886;151.198;2023-04-10T12:46:53;3.10;;;1.08;;
25990;SDS011;13779;-33.886;151.198;2023-04-10T12:49:29;3.40;;;1.30;;
25990;SDS011;13779;-33.886;151.198;2023-04-10T12:51:59;2.28;;;1.20;;
25990;SDS011;13779;-33.886;151.198;2023-04-10T12:54:33;4.22;;;1.10;;
25990;SDS011;13779;-33.886;151.198;2023-04-10T12:57:05;1.85;;;1.00;;
25990;SDS011;13779;-33.886;151.198;2023-04-10T12:59:36;3.92;;;0.90;;
25990;SDS011;13779;-33.886;151.198;2023-04-10T13:02:06;2.13;;;1.00;;
25990;SDS011;13779;-33.886;151.198;2023-04-10T13:04:36;4.75;;;1.50;;
25990;SDS011;13779;-33.886;151.198;2023-04-10T13:07:07;2.30;;;1.20;;
25990;SDS011;13779;-33.886;151.198;2023-04-10T13:09:38;2.80;;;1.25;;
25990;SDS011;13779;-33.886;151.198;2023-04-10T13:12:08;2.38;;;1.13;;
25990;SDS011;13779;-33.886;151.198;2023-04-10T13:14:38;2.65;;;1.17;;
25990;SDS011;13779;-33.886;151.198;2023-04-10T13:17:08;4.22;;;1.20;;
25990;SDS011;13779;-33.886;151.198;2023-04-10T13:19:38;1.52;;;1.00;;
25990;SDS011;13779;-33.886;151.198;2023-04-10T13:22:08;3.25;;;1.20;;
25990;SDS011;13779;-33.886;151.198;2023-04-10T13:24:39;3.92;;;1.30;;
25990;SDS011;13779;-33.886;151.198;2023-04-10T13:27:10;1.48;;;0.90;;
25990;SDS011;13779;-33.886;151.198;2023-04-10T13:29:41;3.77;;;1.10;;
25990;SDS011;13779;-33.886;151.198;2023-04-10T13:32:11;3.03;;;1.23;;
25990;SDS011;13779;-33.886;151.198;2023-04-10T13:34:41;2.03;;;1.10;;
25990;SDS011;13779;-33.886;151.198;2023-04-10T13:37:11;3.22;;;1.10;;
25990;SDS011;13779;-33.886;151.198;2023-04-10T13:39:42;1.60;;;1.30;;
25990;SDS011;13779;-33.886;151.198;2023-04-10T13:42:12;1.85;;;1.20;;
25990;SDS011;13779;-33.886;151.198;2023-04-10T13:44:42;4.15;;;1.90;;
25990;SDS011;13779;-33.886;151.198;2023-04-10T13:47:12;2.67;;;1.40;;
25990;SDS011;13779;-33.886;151.198;2023-04-10T13:49:42;3.20;;;1.60;;
25990;SDS011;13779;-33.886;151.198;2023-04-10T13:52:13;1.55;;;1.23;;
25990;SDS011;13779;-33.886;151.198;2023-04-10T13:54:43;2.67;;;1.45;;
25990;SDS011;13779;-33.886;151.198;2023-04-10T13:57:13;2.97;;;1.20;;
25990;SDS011;13779;-33.886;151.198;2023-04-10T13:59:44;3.03;;;1.42;;
25990;SDS011;13779;-33.886;151.198;2023-04-10T14:02:15;2.72;;;1.40;;
25990;SDS011;13779;-33.886;151.198;2023-04-10T14:04:45;2.78;;;1.27;;
25990;SDS011;13779;-33.886;151.198;2023-04-10T14:07:15;3.22;;;1.23;;
25990;SDS011;13779;-33.886;151.198;2023-04-10T14:09:47;1.88;;;1.30;;
25990;SDS011;13779;-33.886;151.198;2023-04-10T14:12:17;4.28;;;1.50;;
25990;SDS011;13779;-33.886;151.198;2023-04-10T14:14:50;3.30;;;1.15;;
25990;SDS011;13779;-33.886;151.198;2023-04-10T14:17:20;2.58;;;1.40;;
25990;SDS011;13779;-33.886;151.198;2023-04-10T14:19:51;3.37;;;1.20;;
25990;SDS011;13779;-33.886;151.198;2023-04-10T14:22:21;1.70;;;1.30;;
25990;SDS011;13779;-33.886;151.198;2023-04-10T14:24:51;4.70;;;1.50;;
25990;SDS011;13779;-33.886;151.198;2023-04-10T14:27:32;3.92;;;1.63;;
25990;SDS011;13779;-33.886;151.198;2023-04-10T14:30:03;4.00;;;1.77;;
25990;SDS011;13779;-33.886;151.198;2023-04-10T14:32:33;5.00;;;1.42;;
25990;SDS011;13779;-33.886;151.198;2023-04-10T14:35:04;2.67;;;1.48;;
25990;SDS011;13779;-33.886;151.198;2023-04-10T14:37:35;2.13;;;1.50;;
25990;SDS011;13779;-33.886;151.198;2023-04-10T14:40:20;3.35;;;1.45;;
25990;SDS011;13779;-33.886;151.198;2023-04-10T14:42:50;3.33;;;1.52;;
25990;SDS011;13779;-33.886;151.198;2023-04-10T14:45:20;5.05;;;1.50;;
25990;SDS011;13779;-33.886;151.198;2023-04-10T14:47:51;4.82;;;1.50;;
25990;SDS011;13779;-33.886;151.198;2023-04-10T14:50:22;3.08;;;1.50;;
25990;SDS011;13779;-33.886;151.198;2023-04-10T14:52:52;3.95;;;1.58;;
25990;SDS011;13779;-33.886;151.198;2023-04-10T14:55:22;3.63;;;1.52;;
25990;SDS011;13779;-33.886;151.198;2023-04-10T14:57:53;2.40;;;1.45;;
25990;SDS011;13779;-33.886;151.198;2023-04-10T15:00:24;2.92;;;1.42;;
25990;SDS011;13779;-33.886;151.198;2023-04-10T15:02:56;3.75;;;1.45;;
25990;SDS011;13779;-33.886;151.198;2023-04-10T15:05:27;3.70;;;1.80;;
25990;SDS011;13779;-33.886;151.198;2023-04-10T15:07:57;3.78;;;1.63;;
25990;SDS011;13779;-33.886;151.198;2023-04-10T15:10:30;4.57;;;1.50;;
25990;SDS011;13779;-33.886;151.198;2023-04-10T15:13:00;2.30;;;1.30;;
25990;SDS011;13779;-33.886;151.198;2023-04-10T15:15:30;2.92;;;1.30;;
25990;SDS011;13779;-33.886;151.198;2023-04-10T15:18:00;4.20;;;1.73;;
25990;SDS011;13779;-33.886;151.198;2023-04-10T15:20:30;3.63;;;1.60;;
25990;SDS011;13779;-33.886;151.198;2023-04-10T15:23:01;3.30;;;1.50;;
25990;SDS011;13779;-33.886;151.198;2023-04-10T15:25:31;5.85;;;1.67;;
25990;SDS011;13779;-33.886;151.198;2023-04-10T15:28:03;5.30;;;1.70;;
25990;SDS011;13779;-33.886;151.198;2023-04-10T15:30:35;4.90;;;1.70;;
25990;SDS011;13779;-33.886;151.198;2023-04-10T15:33:05;3.30;;;1.30;;
25990;SDS011;13779;-33.886;151.198;2023-04-10T15:35:35;3.75;;;1.90;;